Time;durP1;ratioP1;P1;durP2;ratioP2;P2;SDS_P1;SDS_P2;PMS_P1;PMS_P2;Temp;Humidity;BMP_temperature;BMP_pressure;BME280_temperature;BME280_humidity;BME280_pressure;Samples;Min_cycle;Max_cycle;Signal;HPM_P1;HPM_P2
2022/07/12 00:02:12;;;;;;;7.30;2.80;;;20.30;91.00;;;;;;5045979;28;20200;-70
2022/07/12 00:04:38;;;;;;;3.30;3.00;;;20.30;91.10;;;;;;5038851;28;20216;-70
2022/07/12 00:07:04;;;;;;;2.80;2.60;;;20.30;91.10;;;;;;5037935;28;20294;-68
2022/07/12 00:09:29;;;;;;;3.97;2.70;;;20.20;91.10;;;;;;5025881;28;20228;-69
2022/07/12 00:11:55;;;;;;;2.80;2.60;;;20.20;91.20;;;;;;5045600;28;20228;-69
2022/07/12 00:14:21;;;;;;;3.07;2.70;;;20.20;91.30;;;;;;5032822;28;20255;-70
2022/07/12 00:16:47;;;;;;;2.50;2.30;;;20.20;91.30;;;;;;5048930;28;20228;-70
2022/07/12 00:19:13;;;;;;;2.60;2.40;;;20.10;91.20;;;;;;5042117;28;20477;-70
2022/07/12 00:21:38;;;;;;;3.03;2.70;;;20.10;91.20;;;;;;5042943;28;20260;-69
2022/07/12 00:24:04;;;;;;;4.40;2.87;;;20.10;91.30;;;;;;5044324;28;20272;-69
2022/07/12 00:26:30;;;;;;;3.73;2.53;;;20.10;91.20;;;;;;5049217;28;20236;-70
2022/07/12 00:28:57;;;;;;;1.90;1.80;;;20.10;91.30;;;;;;5048217;28;20695;-70
2022/07/12 00:31:23;;;;;;;2.00;1.80;;;20.00;91.30;;;;;;5046248;28;20220;-69
2022/07/12 00:33:48;;;;;;;2.93;2.73;;;20.00;91.40;;;;;;5045128;28;20459;-70
2022/07/12 00:36:14;;;;;;;2.73;2.30;;;20.00;91.40;;;;;;5042576;28;20224;-69
2022/07/12 00:38:40;;;;;;;2.60;2.40;;;20.00;91.40;;;;;;5047273;28;20365;-70
2022/07/12 00:41:06;;;;;;;2.77;2.57;;;19.90;91.40;;;;;;5035772;28;21009;-70
2022/07/12 00:43:31;;;;;;;2.47;2.27;;;19.90;91.40;;;;;;5061935;28;20234;-70
2022/07/12 00:45:57;;;;;;;2.70;2.50;;;19.80;91.50;;;;;;5044987;28;20232;-69
2022/07/12 00:48:24;;;;;;;2.30;2.10;;;19.80;91.50;;;;;;5059487;28;20314;-70
2022/07/12 00:50:49;;;;;;;2.50;2.30;;;19.80;91.50;;;;;;5043264;28;20227;-70
2022/07/12 00:53:18;;;;;;;3.47;2.57;;;19.80;91.50;;;;;;5048384;28;20457;-69
2022/07/12 00:55:44;;;;;;;2.60;2.40;;;19.70;91.60;;;;;;5047830;28;20224;-69
2022/07/12 00:58:09;;;;;;;2.30;2.20;;;19.60;91.60;;;;;;5046651;28;20442;-70
2022/07/12 01:00:35;;;;;;;1.70;1.60;;;19.50;92.00;;;;;;5041778;28;20451;-70
2022/07/12 01:03:02;;;;;;;2.70;2.50;;;19.40;91.90;;;;;;5040285;28;20224;-69
2022/07/12 01:05:29;;;;;;;2.07;1.90;;;19.50;92.00;;;;;;5044230;28;20220;-70
2022/07/12 01:07:56;;;;;;;2.47;2.27;;;19.50;91.90;;;;;;5041401;28;20447;-70
2022/07/12 01:10:21;;;;;;;2.30;2.10;;;19.50;92.00;;;;;;5043188;28;20961;-70
2022/07/12 01:12:47;;;;;;;2.30;2.10;;;19.40;92.00;;;;;;5047858;28;20509;-71
2022/07/12 01:15:13;;;;;;;2.53;2.20;;;19.40;92.00;;;;;;5033412;28;20282;-70
2022/07/12 01:17:40;;;;;;;2.00;1.80;;;19.40;92.10;;;;;;5040887;28;20463;-70
2022/07/12 01:20:06;;;;;;;1.97;1.77;;;19.40;92.10;;;;;;5040456;28;20226;-70
2022/07/12 01:22:35;;;;;;;2.70;2.20;;;19.40;92.00;;;;;;5039159;28;20982;-70
2022/07/12 01:25:02;;;;;;;2.47;2.27;;;19.40;92.00;;;;;;5041724;28;20452;-71
2022/07/12 01:27:29;;;;;;;2.03;1.93;;;19.40;92.00;;;;;;5047501;28;20554;-69
2022/07/12 01:29:55;;;;;;;3.30;2.40;;;19.40;92.00;;;;;;5039263;28;20444;-69
2022/07/12 01:32:28;;;;;;;2.00;1.80;;;19.40;92.00;;;;;;5040971;28;20830;-69
2022/07/12 01:34:53;;;;;;;2.20;2.00;;;19.30;92.00;;;;;;5038120;28;20461;-69
2022/07/12 01:37:20;;;;;;;1.80;1.70;;;19.30;92.00;;;;;;5033801;28;20443;-69
2022/07/12 01:39:52;;;;;;;2.53;2.30;;;19.30;91.90;;;;;;5049821;28;20239;-69
2022/07/12 01:42:19;;;;;;;1.90;1.80;;;19.30;92.00;;;;;;5041706;28;20452;-70
2022/07/12 01:44:44;;;;;;;2.63;2.43;;;19.30;92.10;;;;;;5030930;28;20538;-69
2022/07/12 01:47:11;;;;;;;2.23;2.10;;;19.20;92.30;;;;;;5043493;28;20518;-70
2022/07/12 01:49:37;;;;;;;1.97;1.87;;;19.20;92.10;;;;;;5057508;28;20213;-70
2022/07/12 01:52:03;;;;;;;2.50;2.30;;;19.20;92.10;;;;;;5041444;28;21008;-69
2022/07/12 01:54:29;;;;;;;2.63;2.07;;;19.10;92.40;;;;;;5042498;28;20269;-70
2022/07/12 01:56:55;;;;;;;2.40;2.20;;;19.10;92.30;;;;;;5027115;28;20585;-69
2022/07/12 01:59:21;;;;;;;2.27;2.07;;;19.10;92.20;;;;;;5044070;28;20242;-70
2022/07/12 02:01:48;;;;;;;3.20;2.30;;;19.10;92.20;;;;;;5048638;28;20219;-69
2022/07/12 02:04:18;;;;;;;2.20;2.10;;;19.00;92.20;;;;;;5046414;28;20522;-70
2022/07/12 02:06:45;;;;;;;2.20;2.10;;;19.00;92.40;;;;;;5043380;28;21010;-69
2022/07/12 02:09:12;;;;;;;2.77;2.47;;;19.00;92.40;;;;;;5045583;28;20540;-69
2022/07/12 02:11:38;;;;;;;2.13;1.80;;;19.00;92.30;;;;;;5036845;28;20465;-69
2022/07/12 02:14:03;;;;;;;2.27;2.03;;;19.00;92.50;;;;;;5037413;28;20542;-70
2022/07/12 02:16:29;;;;;;;2.90;2.70;;;19.00;92.40;;;;;;5039897;28;20235;-70
2022/07/12 02:18:55;;;;;;;2.80;2.50;;;18.90;92.60;;;;;;5046929;28;20235;-69
2022/07/12 02:21:21;;;;;;;4.27;3.87;;;18.90;92.50;;;;;;5032588;28;20633;-69
2022/07/12 02:23:46;;;;;;;3.37;3.13;;;18.80;92.40;;;;;;5045011;28;20504;-70
2022/07/12 02:26:12;;;;;;;3.80;3.50;;;18.80;92.50;;;;;;5044427;28;20715;-70
2022/07/12 02:28:38;;;;;;;5.43;3.50;;;18.80;92.50;;;;;;5043510;28;20689;-70
2022/07/12 02:31:04;;;;;;;4.10;3.70;;;18.80;92.70;;;;;;5059728;28;20223;-68
2022/07/12 02:33:29;;;;;;;5.33;3.97;;;18.80;92.60;;;;;;5024190;28;20216;-69
2022/07/12 02:35:55;;;;;;;5.37;4.87;;;18.80;92.90;;;;;;5041911;28;20702;-70
2022/07/12 02:38:21;;;;;;;5.23;4.57;;;18.80;92.70;;;;;;5041319;28;20676;-70
2022/07/12 02:40:53;;;;;;;5.23;4.60;;;18.70;92.70;;;;;;5046514;28;20705;-69
2022/07/12 02:43:22;;;;;;;7.00;5.20;;;18.70;93.20;;;;;;5048250;28;20462;-69
2022/07/12 02:45:48;;;;;;;5.40;4.90;;;18.60;93.20;;;;;;5027106;28;20462;-68
2022/07/12 02:48:14;;;;;;;10.67;5.60;;;18.70;93.40;;;;;;5043050;28;20518;-70
2022/07/12 02:50:40;;;;;;;5.40;4.83;;;18.60;93.40;;;;;;5045783;28;20616;-69
2022/07/12 02:53:07;;;;;;;5.87;5.17;;;18.60;93.50;;;;;;5032850;28;20222;-70
2022/07/12 02:55:32;;;;;;;6.57;5.90;;;18.60;93.30;;;;;;5046520;28;20837;-69
2022/07/12 02:57:58;;;;;;;6.00;5.40;;;18.60;93.40;;;;;;5043808;28;20446;-69
2022/07/12 03:00:24;;;;;;;6.53;5.03;;;18.60;93.50;;;;;;5042675;28;20216;-69
2022/07/12 03:02:50;;;;;;;6.17;5.53;;;18.60;93.40;;;;;;5041570;28;20262;-69
2022/07/12 03:05:16;;;;;;;5.43;4.90;;;18.60;93.10;;;;;;5024209;28;20494;-70
2022/07/12 03:07:41;;;;;;;6.60;5.60;;;18.60;93.30;;;;;;5024067;28;20246;-69
2022/07/12 03:10:08;;;;;;;7.23;4.83;;;18.60;93.40;;;;;;5042344;28;20220;-68
2022/07/12 03:12:34;;;;;;;6.47;5.50;;;18.60;93.30;;;;;;5023835;28;20215;-69
2022/07/12 03:15:00;;;;;;;5.77;4.70;;;18.60;93.40;;;;;;5037001;28;20445;-70
2022/07/12 03:17:26;;;;;;;5.57;5.07;;;18.60;93.30;;;;;;5036764;28;20531;-70
2022/07/12 03:19:52;;;;;;;8.83;5.63;;;18.50;93.50;;;;;;5050919;28;20493;-69
2022/07/12 03:22:18;;;;;;;6.00;5.37;;;18.40;93.70;;;;;;5038219;28;20672;-69
2022/07/12 03:24:43;;;;;;;6.47;5.67;;;18.40;94.00;;;;;;5039763;28;20230;-70
2022/07/12 03:27:09;;;;;;;8.77;6.10;;;18.40;93.90;;;;;;5025718;28;20219;-69
2022/07/12 03:29:36;;;;;;;5.10;4.60;;;18.40;94.10;;;;;;5042083;28;20786;-70
2022/07/12 03:32:03;;;;;;;8.33;5.90;;;18.40;93.90;;;;;;5043762;28;20266;-70
2022/07/12 03:34:28;;;;;;;5.87;5.27;;;18.40;94.00;;;;;;5031615;28;20482;-69
2022/07/12 03:36:54;;;;;;;6.27;5.47;;;18.30;93.90;;;;;;5035069;28;20477;-69
2022/07/12 03:39:20;;;;;;;6.00;5.40;;;18.30;94.00;;;;;;5039712;28;20607;-69
2022/07/12 03:41:45;;;;;;;5.73;4.70;;;18.20;93.90;;;;;;5042681;28;20246;-68
2022/07/12 03:44:11;;;;;;;7.07;5.80;;;18.20;94.00;;;;;;5044727;28;20229;-69
2022/07/12 03:46:37;;;;;;;6.60;5.20;;;18.20;94.00;;;;;;5045800;28;20265;-70
2022/07/12 03:49:02;;;;;;;6.00;5.40;;;18.20;94.00;;;;;;5035320;28;20234;-69
2022/07/12 03:51:28;;;;;;;6.13;5.60;;;18.20;94.00;;;;;;5042119;28;20231;-70
2022/07/12 03:53:54;;;;;;;5.63;4.77;;;18.10;94.50;;;;;;5050001;28;20255;-70
2022/07/12 03:59:04;;;;;;;5.10;4.60;;;18.00;94.50;;;;;;5044502;28;20299;-68
2022/07/12 04:01:30;;;;;;;5.83;4.97;;;18.10;94.50;;;;;;5046406;28;20887;-69
2022/07/12 04:03:56;;;;;;;6.00;5.40;;;18.00;94.30;;;;;;5037173;28;20245;-68
2022/07/12 04:06:22;;;;;;;6.23;5.33;;;18.10;94.30;;;;;;5039864;28;20592;-68
2022/07/12 04:08:48;;;;;;;5.40;4.40;;;18.10;94.70;;;;;;5045511;28;20223;-69
2022/07/12 04:11:13;;;;;;;7.03;4.90;;;18.00;95.00;;;;;;5038035;28;20216;-69
2022/07/12 04:13:39;;;;;;;8.87;5.30;;;18.00;94.60;;;;;;5030852;28;20220;-69
2022/07/12 04:16:05;;;;;;;5.13;4.60;;;18.00;94.60;;;;;;5046509;28;20244;-69
2022/07/12 04:18:31;;;;;;;5.93;5.27;;;18.00;94.70;;;;;;5044393;28;20217;-69
2022/07/12 04:20:58;;;;;;;7.40;5.30;;;18.10;94.70;;;;;;5040219;28;20531;-68
2022/07/12 04:23:24;;;;;;;5.20;4.70;;;18.10;94.70;;;;;;5039050;28;20520;-70
2022/07/12 04:25:51;;;;;;;6.50;3.83;;;18.10;94.70;;;;;;5033183;28;20481;-68
2022/07/12 04:28:17;;;;;;;11.47;4.70;;;18.10;94.90;;;;;;5045968;28;20461;-68
2022/07/12 04:30:44;;;;;;;6.80;4.90;;;18.10;94.70;;;;;;5040799;28;20538;-69
2022/07/12 04:33:10;;;;;;;6.20;4.93;;;18.00;95.00;;;;;;5042856;28;20208;-69
2022/07/12 04:35:36;;;;;;;6.73;5.00;;;18.00;94.90;;;;;;5044801;28;20480;-69
2022/07/12 04:38:03;;;;;;;6.70;4.57;;;18.00;94.80;;;;;;5046613;28;20455;-70
2022/07/12 04:40:30;;;;;;;7.30;5.03;;;18.00;94.90;;;;;;5045664;28;20813;-69
2022/07/12 04:42:55;;;;;;;5.00;3.50;;;18.10;95.00;;;;;;5038262;28;20451;-69
2022/07/12 04:45:21;;;;;;;6.10;4.47;;;18.10;94.90;;;;;;5044729;28;20586;-69
2022/07/12 04:47:47;;;;;;;5.40;4.57;;;18.10;94.90;;;;;;5043470;28;20211;-69
2022/07/12 04:50:12;;;;;;;4.40;4.00;;;18.10;94.90;;;;;;5044701;28;20224;-69
2022/07/12 04:52:38;;;;;;;4.70;4.40;;;18.10;94.90;;;;;;5049572;28;20242;-69
2022/07/12 04:55:05;;;;;;;4.53;4.10;;;18.10;94.90;;;;;;5042374;28;20293;-68
2022/07/12 04:57:31;;;;;;;4.70;4.20;;;18.20;95.10;;;;;;5046139;28;20220;-68
2022/07/12 04:59:56;;;;;;;4.67;4.27;;;18.10;95.10;;;;;;5032946;28;20455;-68
2022/07/12 05:02:22;;;;;;;5.47;4.90;;;18.10;95.10;;;;;;5039934;28;20220;-69
2022/07/12 05:04:48;;;;;;;5.37;4.87;;;18.10;94.90;;;;;;5038984;28;20221;-69
2022/07/12 05:07:14;;;;;;;4.97;4.50;;;18.20;95.00;;;;;;5025307;28;20239;-68
2022/07/12 05:09:39;;;;;;;5.30;4.67;;;18.20;95.00;;;;;;5039233;28;20227;-68
2022/07/12 05:12:06;;;;;;;4.10;3.70;;;18.20;95.00;;;;;;5064370;28;20216;-69
2022/07/12 05:14:31;;;;;;;8.10;4.40;;;18.20;94.90;;;;;;5051220;28;20222;-69
2022/07/12 05:16:57;;;;;;;4.30;3.90;;;18.20;95.20;;;;;;5047443;28;20443;-69
2022/07/12 05:19:23;;;;;;;5.20;4.70;;;18.30;95.20;;;;;;5023231;28;20228;-69
2022/07/12 05:21:49;;;;;;;4.83;4.30;;;18.30;95.20;;;;;;5014369;28;20232;-70
2022/07/12 05:24:15;;;;;;;5.00;4.50;;;18.30;95.40;;;;;;5038550;28;20230;-69
2022/07/12 05:26:41;;;;;;;4.03;3.63;;;18.40;95.50;;;;;;5051872;28;20462;-69
2022/07/12 05:29:07;;;;;;;5.40;4.30;;;18.40;95.30;;;;;;5001685;28;20231;-69
2022/07/12 05:31:32;;;;;;;5.57;4.33;;;18.40;95.40;;;;;;5044456;28;20516;-69
2022/07/12 05:33:58;;;;;;;4.50;4.10;;;18.50;95.90;;;;;;5048917;28;20446;-69
2022/07/12 05:36:24;;;;;;;5.57;3.97;;;18.60;95.90;;;;;;5038973;28;20623;-69
2022/07/12 05:38:50;;;;;;;4.50;4.10;;;18.60;95.90;;;;;;5050250;28;20450;-70
2022/07/12 05:41:16;;;;;;;5.47;4.30;;;18.60;95.90;;;;;;5051433;28;20454;-70
2022/07/12 05:43:41;;;;;;;5.67;4.43;;;18.70;96.00;;;;;;5031533;28;20244;-69
2022/07/12 05:46:08;;;;;;;7.23;3.93;;;18.70;96.40;;;;;;5048560;28;20227;-68
2022/07/12 05:48:34;;;;;;;5.10;4.23;;;18.70;96.40;;;;;;5049676;28;20233;-70
2022/07/12 05:53:21;;;;;;;5.33;4.60;;;18.80;96.70;;;;;;5049254;28;20974;-69
2022/07/12 05:53:46;;;;;;;6.17;4.77;;;18.80;96.80;;;;;;5042727;28;20216;-69
2022/07/12 05:56:12;;;;;;;4.47;3.93;;;18.90;96.80;;;;;;5036068;28;20474;-69
2022/07/12 05:58:37;;;;;;;5.00;4.13;;;18.90;96.90;;;;;;5049059;28;20215;-71
2022/07/12 06:01:03;;;;;;;6.40;4.70;;;19.00;97.20;;;;;;5047041;28;20224;-69
2022/07/12 06:03:29;;;;;;;4.97;4.53;;;19.10;97.10;;;;;;5048670;28;20258;-70
2022/07/12 06:05:54;;;;;;;8.90;4.57;;;19.10;96.80;;;;;;5043165;28;20248;-69
2022/07/12 06:08:20;;;;;;;5.13;4.63;;;19.20;97.00;;;;;;5045563;28;20240;-69
2022/07/12 06:10:46;;;;;;;7.00;4.53;;;19.20;96.90;;;;;;5048384;28;20213;-70
2022/07/12 06:13:11;;;;;;;5.93;5.40;;;19.30;97.00;;;;;;5041217;28;20690;-69
2022/07/12 06:15:37;;;;;;;5.83;4.87;;;19.30;96.70;;;;;;5048921;28;20222;-70
2022/07/12 06:18:03;;;;;;;5.20;4.70;;;19.30;96.60;;;;;;5046327;28;20686;-71
2022/07/12 06:20:29;;;;;;;5.47;4.77;;;19.30;96.90;;;;;;5040001;28;20231;-70
2022/07/12 06:22:55;;;;;;;5.30;4.80;;;19.40;97.20;;;;;;5039926;28;20214;-70
2022/07/12 06:25:21;;;;;;;6.20;4.70;;;19.40;97.20;;;;;;5047975;28;20477;-69
2022/07/12 06:27:48;;;;;;;4.20;3.80;;;19.50;97.80;;;;;;5042743;28;20454;-69
2022/07/12 06:30:21;;;;;;;5.80;5.17;;;19.60;98.20;;;;;;5043135;28;20453;-70
2022/07/12 06:32:48;;;;;;;5.57;4.53;;;19.70;98.10;;;;;;5043230;28;20451;-70
2022/07/12 06:35:14;;;;;;;4.53;4.13;;;19.80;98.70;;;;;;5040010;28;20463;-70
2022/07/12 06:37:41;;;;;;;4.90;3.37;;;19.80;99.00;;;;;;5034633;28;20455;-70
2022/07/12 06:40:08;;;;;;;3.60;3.30;;;19.90;98.80;;;;;;5046347;28;20464;-70
2022/07/12 06:42:34;;;;;;;4.50;4.07;;;19.90;98.60;;;;;;5031146;28;20981;-69
2022/07/12 06:45:00;;;;;;;4.00;3.60;;;20.00;98.40;;;;;;5047015;28;20435;-70
2022/07/12 06:47:26;;;;;;;4.20;3.50;;;20.00;98.70;;;;;;5039432;28;20455;-70
2022/07/12 06:49:52;;;;;;;5.17;4.70;;;20.10;98.70;;;;;;5040327;28;20478;-70
2022/07/12 06:52:18;;;;;;;4.10;3.70;;;20.20;98.60;;;;;;5040862;28;20454;-69
2022/07/12 06:54:44;;;;;;;4.10;3.50;;;20.40;99.10;;;;;;5042098;28;20216;-70
2022/07/12 06:57:09;;;;;;;3.40;3.13;;;20.50;99.30;;;;;;5030357;28;20227;-70
2022/07/12 06:59:35;;;;;;;3.23;2.93;;;20.50;98.70;;;;;;5037518;28;20222;-70
2022/07/12 07:02:01;;;;;;;3.40;3.10;;;20.60;99.10;;;;;;5041990;28;20212;-70
2022/07/12 07:04:27;;;;;;;3.70;3.40;;;20.70;99.40;;;;;;5036416;28;20216;-70
2022/07/12 07:06:53;;;;;;;3.13;2.90;;;20.90;99.20;;;;;;5035963;28;20463;-69
2022/07/12 07:09:19;;;;;;;2.50;2.30;;;21.00;99.60;;;;;;5038033;28;20222;-70
2022/07/12 07:11:45;;;;;;;3.20;2.90;;;21.10;99.20;;;;;;5046921;28;20748;-71
2022/07/12 07:14:11;;;;;;;2.80;2.60;;;21.20;98.80;;;;;;5040987;28;20604;-70
2022/07/12 07:16:37;;;;;;;2.50;2.33;;;21.20;99.10;;;;;;5046604;28;20232;-70
2022/07/12 07:19:03;;;;;;;3.07;2.77;;;21.30;99.00;;;;;;5034899;28;20220;-70
2022/07/12 07:21:29;;;;;;;3.53;3.23;;;21.30;99.00;;;;;;5044657;28;20868;-69
2022/07/12 07:23:55;;;;;;;3.80;2.10;;;21.50;99.20;;;;;;5043192;28;20463;-70
2022/07/12 07:26:21;;;;;;;2.70;2.50;;;21.70;99.30;;;;;;5033111;28;20236;-70
2022/07/12 07:31:35;;;;;;;2.70;2.50;;;22.00;98.80;;;;;;5043964;28;20501;-70
2022/07/12 07:34:01;;;;;;;2.83;2.63;;;22.10;98.40;;;;;;5033856;28;20446;-70
2022/07/12 07:36:27;;;;;;;2.83;2.57;;;22.10;98.40;;;;;;5037058;28;20464;-69
2022/07/12 07:38:52;;;;;;;2.87;2.67;;;22.20;98.20;;;;;;5036287;28;20455;-70
2022/07/12 07:41:18;;;;;;;3.47;3.17;;;22.20;98.00;;;;;;5037485;28;20588;-70
2022/07/12 07:43:44;;;;;;;3.77;2.80;;;22.20;97.90;;;;;;5043608;28;20206;-70
2022/07/12 07:46:09;;;;;;;2.47;2.27;;;22.20;97.70;;;;;;5032051;28;20234;-69
2022/07/12 07:48:35;;;;;;;2.27;2.10;;;22.30;97.70;;;;;;5037531;28;20222;-70
2022/07/12 07:51:01;;;;;;;2.80;2.60;;;22.30;97.60;;;;;;5021540;28;20216;-69
2022/07/12 07:53:27;;;;;;;2.50;2.37;;;22.40;97.60;;;;;;5042765;28;20235;-69
2022/07/12 07:55:52;;;;;;;2.43;2.23;;;22.50;97.60;;;;;;5043406;28;20211;-68
2022/07/12 07:58:20;;;;;;;2.73;2.53;;;22.60;97.60;;;;;;5041996;28;20216;-71
2022/07/12 08:00:46;;;;;;;2.50;2.30;;;22.70;97.40;;;;;;5034202;28;20691;-69
2022/07/12 08:03:13;;;;;;;3.03;2.80;;;22.80;97.30;;;;;;5038449;28;20438;-70
2022/07/12 08:05:38;;;;;;;2.40;2.20;;;22.80;97.00;;;;;;5041395;28;20481;-69
2022/07/12 08:08:04;;;;;;;2.93;2.73;;;22.90;96.80;;;;;;5045750;28;20458;-69
2022/07/12 08:10:30;;;;;;;2.10;2.00;;;22.90;96.80;;;;;;5022652;28;20620;-70
2022/07/12 08:12:55;;;;;;;2.40;2.20;;;23.00;96.60;;;;;;5036222;28;20235;-68
2022/07/12 08:15:21;;;;;;;2.20;2.10;;;23.00;96.40;;;;;;5040618;28;20720;-69
2022/07/12 08:17:47;;;;;;;4.30;2.40;;;23.10;96.50;;;;;;5042694;28;20223;-70
2022/07/12 08:20:13;;;;;;;2.50;2.40;;;23.20;96.00;;;;;;5034977;28;20277;-70
2022/07/12 08:22:45;;;;;;;3.40;2.57;;;23.30;95.90;;;;;;5041025;28;20236;-68
2022/07/12 08:25:14;;;;;;;2.00;1.90;;;23.30;95.90;;;;;;5038006;28;20261;-69
2022/07/12 08:27:40;;;;;;;1.83;1.73;;;23.40;95.70;;;;;;5040754;28;20465;-69
2022/07/12 08:30:07;;;;;;;2.17;1.97;;;23.50;95.70;;;;;;5037470;28;20469;-69
2022/07/12 08:32:32;;;;;;;2.00;1.90;;;23.60;95.30;;;;;;5046223;28;20303;-70
2022/07/12 08:34:58;;;;;;;2.00;1.90;;;23.60;95.30;;;;;;5046391;28;21050;-70
2022/07/12 08:37:24;;;;;;;1.90;1.80;;;23.70;95.60;;;;;;5040051;28;20231;-71
2022/07/12 08:39:50;;;;;;;2.40;2.20;;;23.80;95.50;;;;;;5044886;28;20290;-70
2022/07/12 08:42:18;;;;;;;2.00;1.90;;;23.90;95.30;;;;;;5042449;28;20237;-70
2022/07/12 08:44:53;;;;;;;1.83;1.73;;;24.00;95.00;;;;;;5048254;28;20207;-70
2022/07/12 08:47:18;;;;;;;1.50;1.43;;;24.10;94.90;;;;;;5048120;28;20481;-69
2022/07/12 08:50:11;;;;;;;2.10;2.00;;;24.30;94.40;;;;;;5041262;28;20470;-69
2022/07/12 08:52:41;;;;;;;2.50;1.80;;;24.50;93.90;;;;;;5021160;28;20219;-70
2022/07/12 08:55:26;;;;;;;1.80;1.70;;;24.50;93.70;;;;;;5059353;28;20478;-69
2022/07/12 08:57:57;;;;;;;2.43;2.23;;;24.60;93.50;;;;;;5073336;28;20450;-70
2022/07/12 09:00:25;;;;;;;1.73;1.63;;;24.60;93.90;;;;;;5029891;28;20457;-69
2022/07/12 09:02:52;;;;;;;2.00;1.90;;;24.70;93.60;;;;;;5040357;28;20509;-70
2022/07/12 09:05:24;;;;;;;1.97;1.87;;;24.80;93.20;;;;;;5057958;28;20456;-70
2022/07/12 09:07:51;;;;;;;1.73;1.63;;;24.80;92.90;;;;;;5045321;28;20446;-70
2022/07/12 09:10:18;;;;;;;1.70;1.60;;;24.90;93.00;;;;;;5046903;28;20450;-70
2022/07/12 09:12:44;;;;;;;1.57;1.53;;;25.00;93.00;;;;;;5041163;28;20462;-70
2022/07/12 09:15:21;;;;;;;2.03;1.93;;;24.90;92.80;;;;;;5042158;28;21065;-70
2022/07/12 09:17:56;;;;;;;1.80;1.70;;;25.00;92.70;;;;;;5036074;28;20455;-70
2022/07/12 09:20:26;;;;;;;2.00;1.90;;;25.00;92.60;;;;;;5038924;28;20563;-70
2022/07/12 09:22:57;;;;;;;1.97;1.87;;;24.90;92.40;;;;;;5033602;28;20490;-70
2022/07/12 09:25:23;;;;;;;1.93;1.83;;;24.90;92.30;;;;;;5035316;28;20566;-70
2022/07/12 09:27:54;;;;;;;2.00;1.67;;;24.90;91.90;;;;;;5066711;28;20991;-70
2022/07/12 09:30:23;;;;;;;1.97;1.87;;;24.90;92.00;;;;;;5028081;28;20443;-70
2022/07/12 09:36:15;;;;;;;1.77;1.67;;;25.00;91.80;;;;;;5042890;28;20457;-70
2022/07/12 09:38:54;;;;;;;1.77;1.67;;;24.90;91.40;;;;;;5037305;28;20577;-70
2022/07/12 09:41:23;;;;;;;1.63;1.53;;;24.90;91.40;;;;;;5037357;28;20459;-70
2022/07/12 09:43:50;;;;;;;1.90;1.80;;;24.90;91.40;;;;;;5047042;28;20466;-70
2022/07/12 09:46:17;;;;;;;2.00;1.90;;;24.90;91.40;;;;;;5043571;28;20490;-70
2022/07/12 09:48:44;;;;;;;2.60;2.10;;;25.00;91.40;;;;;;5047751;28;20800;-70
2022/07/12 09:51:13;;;;;;;1.90;1.80;;;25.10;91.40;;;;;;5046685;28;20530;-70
2022/07/12 09:53:46;;;;;;;1.80;1.70;;;25.20;91.70;;;;;;5045556;28;20529;-69
2022/07/12 09:56:14;;;;;;;1.93;1.83;;;25.30;91.40;;;;;;5056960;28;20470;-70
2022/07/12 09:58:47;;;;;;;1.70;1.60;;;25.50;90.80;;;;;;5047133;28;20461;-70
2022/07/12 10:01:15;;;;;;;4.30;2.07;;;25.60;91.10;;;;;;5044931;28;20863;-70
2022/07/12 10:03:42;;;;;;;1.87;1.77;;;25.60;90.50;;;;;;5036734;28;20460;-69
2022/07/12 10:06:09;;;;;;;2.30;2.10;;;25.60;90.20;;;;;;5041587;28;20861;-69
2022/07/12 10:08:35;;;;;;;1.80;1.70;;;25.50;90.10;;;;;;5045857;28;20828;-70
2022/07/12 10:11:01;;;;;;;1.90;1.80;;;25.50;90.20;;;;;;5030967;28;21296;-69
2022/07/12 10:13:28;;;;;;;3.43;1.80;;;25.50;90.50;;;;;;5047131;28;20557;-70
2022/07/12 10:16:00;;;;;;;1.70;1.60;;;25.70;90.80;;;;;;5044175;28;20461;-70
2022/07/12 10:18:27;;;;;;;2.30;1.60;;;25.90;90.50;;;;;;5039391;28;20455;-70
2022/07/12 10:20:53;;;;;;;1.80;1.70;;;26.20;90.00;;;;;;5038439;28;20463;-70
2022/07/12 10:23:36;;;;;;;1.80;1.70;;;26.50;88.90;;;;;;5037485;28;20450;-69
2022/07/12 10:26:26;;;;;;;1.87;1.77;;;26.70;89.50;;;;;;5020301;28;20997;-70
2022/07/12 10:29:00;;;;;;;1.77;1.67;;;26.70;89.10;;;;;;5036339;28;20864;-70
2022/07/12 10:31:30;;;;;;;2.00;1.90;;;26.60;89.00;;;;;;5036055;28;20450;-70
2022/07/12 10:34:24;;;;;;;1.70;1.60;;;26.80;89.40;;;;;;5047775;28;23235;-70
2022/07/12 10:36:56;;;;;;;1.60;1.50;;;27.00;88.20;;;;;;5030400;28;20472;-70
2022/07/12 10:39:22;;;;;;;1.75;1.65;;;27.20;86.60;;;;;;5040910;28;20467;-69
2022/07/12 10:42:05;;;;;;;1.70;1.60;;;27.40;86.60;;;;;;5046346;28;20222;-71
2022/07/12 10:44:44;;;;;;;2.40;1.90;;;27.50;86.30;;;;;;5045776;28;20308;-69
2022/07/12 10:47:15;;;;;;;1.63;1.60;;;27.70;85.50;;;;;;5038591;28;20310;-70
2022/07/12 10:49:52;;;;;;;2.33;2.15;;;27.80;85.50;;;;;;5038535;28;20236;-70
2022/07/12 10:52:24;;;;;;;1.90;1.80;;;27.70;84.10;;;;;;5039586;28;20223;-70
2022/07/12 10:54:50;;;;;;;1.73;1.63;;;27.80;85.20;;;;;;5041044;28;20225;-69
2022/07/12 10:57:38;;;;;;;1.55;1.45;;;27.90;84.90;;;;;;5037325;28;20229;-70
2022/07/12 11:00:04;;;;;;;1.77;1.67;;;28.00;84.90;;;;;;5036396;28;20231;-70
2022/07/12 11:02:31;;;;;;;2.08;1.98;;;28.20;83.30;;;;;;5023544;28;20293;-70
2022/07/12 11:04:57;;;;;;;2.08;1.60;;;28.40;83.40;;;;;;5040151;28;20309;-70
2022/07/12 11:07:24;;;;;;;2.13;2.03;;;28.60;81.90;;;;;;5056110;28;20231;-70
2022/07/12 11:09:55;;;;;;;1.90;1.80;;;28.50;82.20;;;;;;5035987;28;20281;-70
2022/07/12 11:12:27;;;;;;;3.25;2.10;;;28.60;81.60;;;;;;5035775;28;20221;-70
2022/07/12 11:14:53;;;;;;;1.95;1.85;;;28.60;82.30;;;;;;5028783;28;20224;-70
2022/07/12 11:17:30;;;;;;;1.92;1.83;;;28.70;81.80;;;;;;5037965;28;20232;-70
2022/07/12 11:20:12;;;;;;;2.40;1.60;;;28.50;80.50;;;;;;5038715;28;25260;-70
2022/07/12 11:22:43;;;;;;;1.83;1.73;;;28.50;81.00;;;;;;5044887;28;20226;-68
2022/07/12 11:25:11;;;;;;;1.90;1.80;;;28.50;82.20;;;;;;5023005;28;20229;-70
2022/07/12 11:27:37;;;;;;;3.63;2.10;;;28.50;81.20;;;;;;5042923;28;20847;-70
2022/07/12 11:30:05;;;;;;;1.73;1.63;;;28.50;81.40;;;;;;5044001;28;20932;-70
2022/07/12 11:32:43;;;;;;;1.98;1.88;;;28.60;81.20;;;;;;5039920;28;20222;-70
2022/07/12 11:35:23;;;;;;;1.63;1.52;;;28.40;79.20;;;;;;5045886;28;20220;-70
2022/07/12 11:37:50;;;;;;;1.85;1.75;;;28.50;80.60;;;;;;5046668;28;20728;-70
2022/07/12 11:40:21;;;;;;;1.90;1.80;;;28.60;80.50;;;;;;5029916;28;20218;-70
2022/07/12 11:42:58;;;;;;;1.65;1.60;;;28.80;79.40;;;;;;5051963;28;20220;-70
2022/07/12 11:45:26;;;;;;;1.85;1.75;;;28.80;79.70;;;;;;5041889;28;20220;-70
2022/07/12 11:47:52;;;;;;;1.65;1.55;;;28.90;79.90;;;;;;5044055;28;20253;-70
2022/07/12 11:50:19;;;;;;;1.80;1.70;;;29.10;79.30;;;;;;5042841;28;20234;-69
2022/07/12 11:52:45;;;;;;;2.53;1.60;;;29.20;78.30;;;;;;5021861;28;20237;-70
2022/07/12 11:55:11;;;;;;;1.77;1.67;;;29.30;77.90;;;;;;5035061;28;20226;-72
2022/07/12 11:57:36;;;;;;;1.83;1.73;;;29.50;76.50;;;;;;5044394;28;20513;-68
2022/07/12 12:00:20;;;;;;;1.67;1.58;;;29.60;77.40;;;;;;5056074;28;20241;-70
2022/07/12 12:02:50;;;;;;;1.75;1.65;;;29.60;76.80;;;;;;5018631;28;20298;-70
2022/07/12 12:05:16;;;;;;;1.88;1.77;;;29.70;76.60;;;;;;5039859;28;20237;-70
2022/07/12 12:07:42;;;;;;;1.60;1.50;;;29.70;75.30;;;;;;5042065;28;20222;-71
2022/07/12 12:10:15;;;;;;;1.70;1.60;;;29.70;76.40;;;;;;5039387;28;20336;-70
2022/07/12 12:12:47;;;;;;;1.90;1.80;;;29.80;75.80;;;;;;5045512;28;20229;-70
2022/07/12 12:15:21;;;;;;;1.90;1.80;;;29.70;75.40;;;;;;5047981;28;20571;-69
2022/07/12 12:17:57;;;;;;;1.48;1.48;;;29.60;75.90;;;;;;5041977;28;20670;-70
2022/07/12 12:20:24;;;;;;;1.42;1.42;;;29.70;76.00;;;;;;5043677;28;20235;-71
2022/07/12 12:23:01;;;;;;;2.00;1.80;;;29.70;75.40;;;;;;5044481;28;20227;-71
2022/07/12 12:25:28;;;;;;;1.50;1.40;;;29.70;75.50;;;;;;5047467;28;20262;-71
2022/07/12 12:27:59;;;;;;;1.70;1.60;;;29.90;75.40;;;;;;5051179;28;20218;-70
2022/07/12 12:30:24;;;;;;;2.72;1.67;;;30.00;74.60;;;;;;5048181;28;20760;-70
2022/07/12 12:32:58;;;;;;;1.98;1.88;;;30.10;75.10;;;;;;5031649;28;20239;-70
2022/07/12 12:35:30;;;;;;;1.70;1.60;;;30.10;74.90;;;;;;5041686;28;20637;-70
2022/07/12 12:37:57;;;;;;;1.80;1.70;;;30.10;73.50;;;;;;5045343;28;20224;-69
2022/07/12 12:40:29;;;;;;;1.60;1.50;;;30.10;73.90;;;;;;5042397;28;20228;-70
2022/07/12 12:43:09;;;;;;;1.65;1.65;;;30.30;74.60;;;;;;5041851;28;20242;-70
2022/07/12 12:45:35;;;;;;;1.75;1.65;;;30.50;73.30;;;;;;5049977;28;20231;-70
2022/07/12 12:48:03;;;;;;;1.50;1.45;;;30.60;73.90;;;;;;5048851;28;20226;-70
2022/07/12 12:50:41;;;;;;;2.13;1.92;;;30.80;73.50;;;;;;5049706;28;20592;-70
2022/07/12 12:53:18;;;;;;;1.77;1.67;;;30.80;74.00;;;;;;5035413;28;20244;-70
2022/07/12 12:55:47;;;;;;;1.75;1.65;;;30.90;73.90;;;;;;5053523;28;20243;-70
2022/07/12 12:58:14;;;;;;;1.80;1.70;;;30.90;71.80;;;;;;5046571;28;20647;-70
2022/07/12 13:00:44;;;;;;;1.67;1.58;;;30.90;71.60;;;;;;5029801;28;20229;-71